createdAt,value
2022-08-09T00:02:51.597Z,16.4
2022-08-09T00:07:52.292Z,16.3
2022-08-09T00:12:51.497Z,16.1
2022-08-09T00:23:07.788Z,15.9
2022-08-09T00:27:51.124Z,15.8
2022-08-09T00:32:51.306Z,15.8
2022-08-09T00:37:50.779Z,15.7
2022-08-09T00:44:18.799Z,15.6
2022-08-09T00:47:50.568Z,15.4
2022-08-09T00:52:50.610Z,15.2
2022-08-09T00:57:50.779Z,14.9
2022-08-09T01:02:50.598Z,14.8
2022-08-09T01:12:51.615Z,14.8
2022-08-09T01:17:51.881Z,14.8
2022-08-09T01:22:51.325Z,14.7
2022-08-09T01:27:51.454Z,14.6
2022-08-09T01:32:50.715Z,14.6
2022-08-09T01:38:06.172Z,14.5
2022-08-09T01:42:50.637Z,14.4
2022-08-09T01:47:50.717Z,14.4
2022-08-09T01:52:50.756Z,14.3
2022-08-09T01:57:50.771Z,14.4
2022-08-09T02:02:50.603Z,14.3
2022-08-09T02:08:36.219Z,14.3
2022-08-09T02:12:50.655Z,14.2
2022-08-09T02:17:59.681Z,14.1
2022-08-09T02:22:50.642Z,13.9
2022-08-09T02:27:58.435Z,13.9
2022-08-09T02:32:51.004Z,13.9
2022-08-09T02:42:51.063Z,13.6
2022-08-09T02:57:59.815Z,13.4
2022-08-09T03:02:58.815Z,13.4
2022-08-09T03:07:55.266Z,13.4
2022-08-09T03:12:51.995Z,13.4
2022-08-09T03:22:52.633Z,13.3
2022-08-09T03:27:50.707Z,13.2
2022-08-09T03:32:50.728Z,13.1
2022-08-09T03:42:50.668Z,12.8
2022-08-09T03:47:50.646Z,12.7
2022-08-09T03:52:50.705Z,12.6
2022-08-09T03:57:53.756Z,12.5
2022-08-09T04:02:52.604Z,12.5
2022-08-09T04:07:53.085Z,12.5
2022-08-09T04:12:50.986Z,12.5
2022-08-09T04:17:50.987Z,12.6
2022-08-09T04:22:50.778Z,12.7
2022-08-09T04:27:50.759Z,12.8
2022-08-09T04:33:03.431Z,12.8
2022-08-09T04:37:52.625Z,12.8
2022-08-09T04:42:50.772Z,12.8
2022-08-09T04:47:59.610Z,13.1
2022-08-09T04:57:54.515Z,13
2022-08-09T05:02:51.988Z,13.1
2022-08-09T05:07:50.682Z,13.1
2022-08-09T05:12:50.730Z,13.2
2022-08-09T05:18:40.024Z,13.4
2022-08-09T05:23:51.293Z,13.5
2022-08-09T05:27:51.680Z,13.6
2022-08-09T05:32:53.287Z,13.7
2022-08-09T05:37:51.681Z,13.9
2022-08-09T05:42:51.668Z,14.1
2022-08-09T05:47:53.694Z,14.3
2022-08-09T05:52:52.284Z,14.4
2022-08-09T05:57:56.252Z,14.8
2022-08-09T06:02:54.486Z,14.9
2022-08-09T06:08:05.154Z,15.2
2022-08-09T06:12:59.382Z,15.3
2022-08-09T06:22:51.712Z,15.6
2022-08-09T06:27:52.029Z,15.9
2022-08-09T06:32:52.988Z,16.3
2022-08-09T06:42:51.756Z,16.9
2022-08-09T06:47:57.869Z,17.1
2022-08-09T06:52:51.662Z,17.1
2022-08-09T06:58:02.346Z,17.3
2022-08-09T07:02:51.813Z,17.8
2022-08-09T07:07:59.319Z,18.1
2022-08-09T07:12:57.320Z,18.5
2022-08-09T07:17:52.800Z,18.6
2022-08-09T07:22:53.311Z,18.9
2022-08-09T07:27:53.048Z,19.3
2022-08-09T07:32:52.943Z,19.5
2022-08-09T07:37:51.731Z,20.1
2022-08-09T07:42:52.395Z,20.4
2022-08-09T07:48:00.983Z,20.6
2022-08-09T07:52:51.705Z,21.1
2022-08-09T07:57:51.703Z,22.3
2022-08-09T08:02:51.801Z,22.5
2022-08-09T08:12:51.768Z,23.1
2022-08-09T08:17:54.417Z,23.3
2022-08-09T08:22:51.732Z,23.2
2022-08-09T08:27:51.745Z,23.1
2022-08-09T08:32:52.948Z,23.3
2022-08-09T08:37:54.667Z,23.8
2022-08-09T08:42:51.747Z,24.2
2022-08-09T08:47:51.872Z,24.4
2022-08-09T08:52:53.217Z,24
2022-08-09T08:57:56.126Z,24.2
2022-08-09T09:02:52.425Z,24.6
2022-08-09T09:07:51.733Z,24.5
2022-08-09T09:12:51.820Z,24.6
2022-08-09T09:22:51.825Z,25.1
2022-08-09T09:28:04.829Z,25.3
2022-08-09T09:32:51.872Z,25.4
2022-08-09T09:37:51.864Z,25.8
2022-08-09T09:42:52.274Z,26.3
2022-08-09T09:47:56.844Z,26.6
2022-08-09T09:52:52.587Z,26.8
2022-08-09T09:58:01.905Z,26.3
2022-08-09T10:02:51.832Z,27.2
2022-08-09T10:08:00.966Z,28
2022-08-09T10:12:52.174Z,28.4
2022-08-09T10:17:55.419Z,28.3
2022-08-09T10:22:55.053Z,28.9
2022-08-09T10:27:57.390Z,29.1
2022-08-09T10:32:53.028Z,29.1
2022-08-09T10:37:51.855Z,30
2022-08-09T10:48:13.028Z,28.6
2022-08-09T10:52:51.778Z,28.9
2022-08-09T10:57:52.207Z,28.7
2022-08-09T11:03:07.469Z,28.8
2022-08-09T11:07:58.022Z,28.4
2022-08-09T11:17:53.588Z,29.8
2022-08-09T11:22:55.672Z,29.9
2022-08-09T11:28:05.671Z,29.9
2022-08-09T11:32:51.887Z,29.9
2022-08-09T11:37:51.806Z,30
2022-08-09T11:42:51.787Z,31.1
2022-08-09T11:47:51.786Z,30.8
2022-08-09T11:53:03.806Z,32.1
2022-08-09T11:58:00.209Z,31.9
2022-08-09T12:02:52.498Z,31.6
2022-08-09T12:07:52.707Z,33.1
2022-08-09T12:12:52.865Z,33.4
2022-08-09T12:17:52.209Z,31.5
2022-08-09T12:22:51.819Z,32.8
2022-08-09T12:28:57.902Z,32.3
2022-08-09T12:32:51.801Z,33.3
2022-08-09T12:37:53.638Z,33.8
2022-08-09T12:42:51.823Z,35.4
2022-08-09T12:47:51.790Z,33.6
2022-08-09T12:52:58.491Z,34.9
2022-08-09T12:57:51.772Z,33.7
2022-08-09T13:02:53.372Z,33.1
2022-08-09T13:07:52.114Z,34.5
2022-08-09T13:13:10.334Z,33.1
2022-08-09T13:18:04.023Z,34
2022-08-09T13:23:02.397Z,34.1
2022-08-09T13:27:55.512Z,35.4
2022-08-09T13:32:51.864Z,35.4
2022-08-09T13:37:52.895Z,34.3
2022-08-09T13:42:52.116Z,33.1
2022-08-09T13:47:54.675Z,33.5
2022-08-09T13:52:51.812Z,32.6
2022-08-09T13:57:53.169Z,33
2022-08-09T14:03:04.741Z,31.8
2022-08-09T14:07:51.868Z,32.3
2022-08-09T14:18:06.660Z,32.4
2022-08-09T14:22:51.974Z,31.9
2022-08-09T14:27:56.682Z,31.8
2022-08-09T14:32:51.874Z,31.9
2022-08-09T14:38:01.693Z,32.3
2022-08-09T14:42:51.904Z,29.4
2022-08-09T14:47:57.723Z,29.2
2022-08-09T14:53:06.230Z,30.7
2022-08-09T14:57:54.302Z,31.3
2022-08-09T15:02:52.181Z,31.4
2022-08-09T15:07:54.485Z,31.7
2022-08-09T15:12:51.842Z,29.6
2022-08-09T15:17:53.010Z,28.5
2022-08-09T15:22:51.828Z,29.6
2022-08-09T15:27:55.134Z,30.1
2022-08-09T15:33:23.467Z,30.4
2022-08-09T15:42:52.037Z,32.1
2022-08-09T15:48:03.243Z,31.1
2022-08-09T15:52:54.803Z,30.7
2022-08-09T15:57:51.938Z,28.7
2022-08-09T16:02:53.855Z,28.8
2022-08-09T16:07:51.902Z,29.4
2022-08-09T16:12:53.449Z,30.3
2022-08-09T16:17:52.261Z,33.2
2022-08-09T16:22:51.966Z,34.4
2022-08-09T16:27:52.810Z,33.3
2022-08-09T16:32:53.541Z,31.7
2022-08-09T16:42:51.913Z,31.6
2022-08-09T16:48:43.467Z,30.6
2022-08-09T16:52:51.934Z,29.1
2022-08-09T16:58:08.367Z,28.3
2022-08-09T17:02:51.935Z,27.5
2022-08-09T17:08:42.453Z,27.3
2022-08-09T17:12:51.921Z,27.4
2022-08-09T17:17:51.962Z,27.2
2022-08-09T17:22:52.712Z,27.1
2022-08-09T17:27:53.623Z,27.1
2022-08-09T17:32:51.950Z,27
2022-08-09T17:42:55.480Z,26.6
2022-08-09T17:47:55.091Z,26.4
2022-08-09T17:52:52.015Z,26.2
2022-08-09T17:58:02.277Z,26
2022-08-09T18:02:57.998Z,25.9
2022-08-09T18:07:52.008Z,25.8
2022-08-09T18:13:38.374Z,25.6
2022-08-09T18:18:00.903Z,25.3
2022-08-09T18:22:51.950Z,25.1
2022-08-09T18:28:02.537Z,24.9
2022-08-09T18:32:53.903Z,24.7
2022-08-09T18:37:54.510Z,24.4
2022-08-09T18:42:52.790Z,24.1
2022-08-09T18:47:51.988Z,24
2022-08-09T18:52:51.995Z,24.1
2022-08-09T18:57:52.040Z,23.7
2022-08-09T19:07:59.523Z,20
2022-08-09T19:17:54.706Z,19.8
2022-08-09T19:27:52.473Z,20.2
2022-08-09T19:37:54.678Z,20.4
2022-08-09T19:42:51.972Z,20.4
2022-08-09T19:47:51.984Z,20.4
2022-08-09T19:52:52.423Z,20.5
2022-08-09T19:57:52.002Z,20.4
2022-08-09T20:04:24.428Z,20.4
2022-08-09T20:07:57.287Z,20.3
2022-08-09T20:12:52.159Z,20.1
2022-08-09T20:17:54.337Z,20.3
2022-08-09T20:22:56.015Z,20.1
2022-08-09T20:27:53.469Z,20.2
2022-08-09T20:32:52.771Z,20.1
2022-08-09T20:42:53.511Z,19.8
2022-08-09T20:47:52.037Z,19.8
2022-08-09T20:52:52.028Z,19.9
2022-08-09T20:58:05.695Z,19.8
2022-08-09T21:02:52.167Z,19.7
2022-08-09T21:07:52.021Z,19.6
2022-08-09T21:18:12.137Z,19.5
2022-08-09T21:22:52.776Z,19.6
2022-08-09T21:27:52.793Z,19.4
2022-08-09T21:32:52.000Z,19.4
2022-08-09T21:37:59.638Z,19.3
2022-08-09T21:42:54.208Z,19.2
2022-08-09T21:52:53.008Z,19.1
2022-08-09T21:57:58.407Z,19
2022-08-09T22:02:58.565Z,18.9
2022-08-09T22:07:53.049Z,18.8
2022-08-09T22:12:53.820Z,18.8
2022-08-09T22:17:53.093Z,18.6
2022-08-09T22:22:53.194Z,18.6
2022-08-09T22:27:53.156Z,18.4
2022-08-09T22:32:53.179Z,18.3
2022-08-09T22:38:03.497Z,18.1
2022-08-09T22:42:53.100Z,17.9
2022-08-09T22:48:05.659Z,17.9
2022-08-09T22:52:54.994Z,17.8
2022-08-09T22:57:59.670Z,17.8
2022-08-09T23:02:53.142Z,17.8
2022-08-09T23:12:53.191Z,17.3
2022-08-09T23:17:54.440Z,17.3
2022-08-09T23:32:53.315Z,16.9
2022-08-09T23:37:53.248Z,16.8
2022-08-09T23:47:53.257Z,16.4
2022-08-09T23:52:53.163Z,16.3
2022-08-09T23:58:08.285Z,16.2
